createdAt,value
2023-08-03T00:03:54.997Z,3.10
2023-08-03T00:06:23.834Z,3.17
2023-08-03T00:08:54.033Z,2.67
2023-08-03T00:11:23.071Z,3.15
2023-08-03T00:13:51.733Z,3.05
2023-08-03T00:16:20.346Z,2.55
2023-08-03T00:21:48.236Z,2.08
2023-08-03T00:24:18.362Z,2.20
2023-08-03T00:26:47.127Z,2.00
2023-08-03T00:29:31.188Z,1.85
2023-08-03T00:32:15.273Z,2.20
2023-08-03T00:34:44.139Z,2.30
2023-08-03T00:45:53.166Z,2.88
2023-08-03T00:48:22.448Z,2.90
2023-08-03T00:51:06.445Z,2.70
2023-08-03T00:53:35.671Z,3.45
2023-08-03T00:56:31.772Z,3.13
2023-08-03T00:59:00.618Z,2.55
2023-08-03T01:01:29.271Z,3.65
2023-08-03T01:03:57.921Z,3.20
2023-08-03T01:06:48.060Z,2.75
2023-08-03T01:09:16.978Z,3.72
2023-08-03T01:11:48.527Z,3.17
2023-08-03T01:14:17.150Z,3.78
2023-08-03T01:16:45.873Z,3.40
2023-08-03T01:19:16.220Z,3.45
2023-08-03T01:21:47.137Z,3.20
2023-08-03T01:27:33.879Z,3.83
2023-08-03T01:30:02.758Z,4.07
2023-08-03T01:32:31.953Z,3.65
2023-08-03T01:38:26.197Z,3.60
2023-08-03T01:41:01.077Z,3.85
2023-08-03T01:46:29.056Z,3.78
2023-08-03T01:51:42.847Z,2.90
2023-08-03T01:54:13.731Z,3.22
2023-08-03T01:57:03.929Z,3.17
2023-08-03T01:59:38.428Z,3.30
2023-08-03T02:02:07.706Z,2.88
2023-08-03T02:12:43.889Z,4.35
2023-08-03T02:15:31.667Z,3.42
2023-08-03T02:18:00.403Z,3.55
2023-08-03T02:20:44.484Z,3.72
2023-08-03T02:23:13.052Z,3.60
2023-08-03T02:25:44.689Z,2.92
2023-08-03T02:33:56.188Z,2.75
2023-08-03T02:36:28.512Z,2.67
2023-08-03T02:38:57.222Z,2.53
2023-08-03T02:41:25.969Z,3.10
2023-08-03T02:43:57.706Z,3.00
2023-08-03T02:46:26.363Z,2.40
2023-08-03T02:48:55.402Z,2.60
2023-08-03T02:51:24.144Z,2.50
2023-08-03T02:53:55.930Z,3.40
2023-08-03T02:56:30.396Z,2.75
2023-08-03T03:05:55.187Z,2.33
2023-08-03T03:08:24.047Z,2.38
2023-08-03T03:10:58.147Z,3.10
2023-08-03T03:13:27.077Z,2.70
2023-08-03T03:15:57.262Z,2.55
2023-08-03T03:21:27.619Z,2.63
2023-08-03T03:23:56.228Z,3.00
2023-08-03T03:26:53.492Z,3.00
2023-08-03T03:29:23.558Z,3.53
2023-08-03T03:31:53.855Z,3.20
2023-08-03T03:34:22.690Z,3.05
2023-08-03T03:36:53.327Z,3.20
2023-08-03T03:42:22.215Z,3.92
2023-08-03T03:44:50.977Z,3.00
2023-08-03T03:51:04.042Z,2.45
2023-08-03T03:53:47.956Z,3.00
2023-08-03T03:56:16.913Z,2.50
2023-08-03T03:58:45.855Z,2.55
2023-08-03T04:01:14.524Z,2.58
2023-08-03T04:03:46.394Z,2.05
2023-08-03T04:06:15.428Z,1.92
2023-08-03T04:08:44.390Z,2.05
2023-08-03T04:14:31.452Z,2.53
2023-08-03T04:17:00.572Z,2.28
2023-08-03T04:22:13.029Z,2.38
2023-08-03T04:24:42.642Z,2.80
2023-08-03T04:27:11.536Z,3.00
2023-08-03T04:29:40.261Z,2.50
2023-08-03T04:32:27.101Z,2.90
2023-08-03T04:34:57.485Z,2.72
2023-08-03T04:37:46.168Z,2.45
2023-08-03T04:40:15.133Z,3.50
2023-08-03T04:43:11.573Z,3.38
2023-08-03T04:45:40.801Z,4.20
2023-08-03T04:48:09.981Z,3.75
2023-08-03T04:50:40.488Z,3.70
2023-08-03T04:53:09.944Z,4.15
2023-08-03T04:55:41.543Z,4.38
2023-08-03T04:58:10.703Z,4.00
2023-08-03T05:00:45.287Z,4.22
2023-08-03T05:03:14.298Z,3.22
2023-08-03T05:05:47.799Z,3.75
2023-08-03T05:08:16.778Z,3.33
2023-08-03T05:10:48.949Z,3.75
2023-08-03T05:13:18.643Z,3.20
2023-08-03T05:15:49.943Z,3.13
2023-08-03T05:18:21.387Z,3.00
2023-08-03T05:20:51.913Z,3.20
2023-08-03T05:23:21.292Z,2.58
2023-08-03T05:25:56.233Z,2.55
2023-08-03T05:28:25.754Z,3.05
2023-08-03T05:30:54.886Z,3.45
2023-08-03T05:33:23.588Z,2.88
2023-08-03T05:35:55.067Z,3.00
2023-08-03T05:38:24.068Z,2.80
2023-08-03T05:40:53.051Z,3.35
2023-08-03T05:43:27.129Z,2.65
2023-08-03T05:46:03.192Z,2.42
2023-08-03T05:48:33.089Z,2.45
2023-08-03T05:51:03.628Z,2.00
2023-08-03T05:53:32.525Z,2.22
2023-08-03T05:56:11.696Z,2.17
2023-08-03T05:58:41.478Z,1.85
2023-08-03T06:01:14.110Z,1.92
2023-08-03T06:03:46.013Z,2.40
2023-08-03T06:06:20.716Z,2.25
2023-08-03T06:08:55.070Z,2.53
2023-08-03T06:11:27.696Z,2.47
2023-08-03T06:13:57.602Z,3.10
2023-08-03T06:16:27.390Z,2.60
2023-08-03T06:19:00.245Z,2.35
2023-08-03T06:21:30.882Z,2.53
2023-08-03T06:24:04.874Z,2.80
2023-08-03T06:26:38.194Z,3.60
2023-08-03T06:29:07.001Z,2.80
2023-08-03T06:31:39.331Z,3.00
2023-08-03T06:34:12.388Z,3.30
2023-08-03T06:36:45.598Z,2.97
2023-08-03T06:39:17.039Z,3.50
2023-08-03T06:41:46.325Z,3.47
2023-08-03T06:44:15.507Z,3.67
2023-08-03T06:46:44.392Z,4.10
2023-08-03T06:49:13.359Z,3.80
2023-08-03T06:51:43.888Z,3.45
2023-08-03T06:54:15.681Z,4.22
2023-08-03T06:56:44.622Z,3.72
2023-08-03T06:59:22.424Z,4.18
2023-08-03T07:01:52.712Z,4.10
2023-08-03T07:04:21.690Z,3.83
2023-08-03T07:06:52.088Z,3.90
2023-08-03T07:09:20.892Z,4.15
2023-08-03T07:11:49.585Z,3.97
2023-08-03T07:14:19.477Z,4.82
2023-08-03T07:16:50.568Z,4.57
2023-08-03T07:19:19.526Z,4.30
2023-08-03T07:22:23.684Z,4.40
2023-08-03T07:25:14.881Z,4.40
2023-08-03T07:28:03.287Z,4.55
2023-08-03T07:30:33.224Z,4.40
2023-08-03T07:33:02.672Z,4.43
2023-08-03T07:35:31.787Z,4.57
2023-08-03T07:38:02.434Z,4.63
2023-08-03T07:40:31.211Z,4.55
2023-08-03T07:43:02.642Z,4.47
2023-08-03T07:48:03.388Z,3.78
2023-08-03T07:50:32.354Z,3.85
2023-08-03T07:53:03.268Z,3.30
2023-08-03T07:55:34.957Z,3.20
2023-08-03T07:58:03.890Z,3.58
2023-08-03T08:00:33.971Z,3.42
2023-08-03T08:03:03.898Z,3.35
2023-08-03T08:05:32.723Z,3.05
2023-08-03T08:08:05.970Z,2.80
2023-08-03T08:10:34.985Z,3.13
2023-08-03T08:13:04.429Z,3.30
2023-08-03T08:15:33.600Z,3.10
2023-08-03T08:18:02.526Z,3.30
2023-08-03T08:20:31.405Z,3.20
2023-08-03T08:23:01.654Z,3.33
2023-08-03T08:25:35.588Z,3.47
2023-08-03T08:28:05.195Z,2.97
2023-08-03T08:30:34.216Z,2.58
2023-08-03T08:33:04.035Z,4.03
2023-08-03T08:35:35.013Z,3.08
2023-08-03T08:38:07.472Z,2.83
2023-08-03T08:40:37.879Z,2.90
2023-08-03T08:43:08.020Z,3.42
2023-08-03T08:45:39.150Z,3.00
2023-08-03T08:53:17.535Z,3.58
2023-08-03T08:58:20.958Z,3.10
2023-08-03T09:00:50.568Z,3.15
2023-08-03T09:03:20.209Z,5.10
2023-08-03T09:09:00.480Z,3.78
2023-08-03T09:11:47.292Z,3.45
2023-08-03T09:14:17.413Z,3.63
2023-08-03T09:16:46.579Z,5.28
2023-08-03T11:41:33.855Z,3.10
2023-08-03T11:44:03.260Z,4.45
2023-08-03T11:46:34.764Z,3.60
2023-08-03T11:49:19.875Z,4.03
2023-08-03T11:51:51.225Z,4.88
2023-08-03T11:54:28.685Z,4.50
2023-08-03T11:57:18.055Z,4.95
2023-08-03T11:59:48.337Z,4.65
2023-08-03T12:06:09.360Z,4.85
2023-08-03T12:08:46.220Z,5.32
2023-08-03T12:11:24.720Z,5.03
2023-08-03T12:13:56.222Z,4.88
2023-08-03T12:16:27.808Z,4.65
2023-08-03T12:18:57.028Z,4.55
2023-08-03T12:21:26.265Z,5.50
2023-08-03T12:23:55.036Z,4.55
2023-08-03T12:26:24.933Z,4.93
2023-08-03T12:29:08.056Z,4.65
2023-08-03T12:31:38.370Z,4.78
2023-08-03T12:34:07.556Z,4.68
2023-08-03T12:36:36.795Z,4.80
2023-08-03T12:39:07.171Z,4.47
2023-08-03T12:41:39.120Z,4.10
2023-08-03T12:44:09.906Z,3.90
2023-08-03T12:46:38.979Z,4.57
2023-08-03T12:49:07.858Z,4.97
2023-08-03T12:51:39.553Z,3.95
2023-08-03T12:54:08.724Z,4.55
2023-08-03T12:56:39.940Z,4.05
2023-08-03T12:59:10.414Z,3.60
2023-08-03T13:01:39.445Z,4.03
2023-08-03T13:04:08.322Z,3.63
2023-08-03T13:06:37.644Z,3.38
2023-08-03T13:09:06.485Z,3.80
2023-08-03T13:11:35.244Z,3.65
2023-08-03T13:14:04.350Z,3.42
2023-08-03T13:16:34.934Z,4.10
2023-08-03T13:19:04.831Z,3.65
2023-08-03T13:21:33.726Z,4.15
2023-08-03T13:24:02.468Z,4.10
2023-08-03T13:26:31.499Z,3.65
2023-08-03T13:29:07.731Z,3.40
2023-08-03T13:31:49.098Z,3.33
2023-08-03T13:34:20.121Z,2.72
2023-08-03T13:36:55.421Z,3.80
2023-08-03T13:39:26.492Z,3.33
2023-08-03T13:41:58.503Z,3.17
2023-08-03T13:44:27.162Z,3.50
2023-08-03T13:46:57.398Z,3.72
2023-08-03T13:49:26.295Z,3.30
2023-08-03T13:51:55.352Z,3.10
2023-08-03T13:54:24.125Z,2.70
2023-08-03T13:59:25.652Z,2.80
2023-08-03T14:04:33.640Z,2.67
2023-08-03T14:09:34.668Z,2.92
2023-08-03T14:12:05.184Z,2.80
2023-08-03T14:17:06.830Z,3.10
2023-08-03T14:19:37.541Z,2.33
2023-08-03T14:22:08.576Z,2.50
2023-08-03T14:24:39.475Z,2.38
2023-08-03T14:27:23.232Z,2.50
2023-08-03T14:29:52.483Z,3.13
2023-08-03T14:32:21.452Z,2.80
2023-08-03T14:37:23.504Z,3.28
2023-08-03T14:39:52.240Z,3.10
2023-08-03T14:42:21.253Z,3.00
2023-08-03T14:44:52.030Z,2.70
2023-08-03T14:47:21.162Z,3.05
2023-08-03T14:52:25.039Z,2.90
2023-08-03T14:54:55.021Z,3.05
2023-08-03T14:57:24.547Z,3.08
2023-08-03T14:59:53.406Z,2.67
2023-08-03T15:02:22.228Z,2.90
2023-08-03T15:04:52.427Z,2.97
2023-08-03T15:07:21.374Z,3.20
2023-08-03T15:09:50.452Z,2.65
2023-08-03T15:12:19.626Z,3.17
2023-08-03T15:14:48.880Z,2.60
2023-08-03T15:17:25.769Z,3.65
2023-08-03T15:20:00.025Z,2.10
2023-08-03T15:22:29.900Z,2.60
2023-08-03T15:25:00.277Z,2.35
2023-08-03T15:27:31.714Z,2.60
2023-08-03T15:30:02.405Z,2.60
2023-08-03T15:33:18.620Z,2.88
2023-08-03T15:35:43.306Z,4.07
2023-08-03T15:38:14.832Z,2.92
2023-08-03T15:41:01.198Z,2.90
2023-08-03T15:43:38.599Z,3.63
2023-08-03T15:46:14.023Z,2.88
2023-08-03T15:51:23.023Z,2.88
2023-08-03T15:53:59.274Z,2.42
2023-08-03T15:56:36.765Z,3.00
2023-08-03T15:59:05.542Z,2.58
2023-08-03T16:01:41.129Z,2.75
2023-08-03T16:04:12.536Z,3.03
2023-08-03T16:06:47.614Z,3.88
2023-08-03T16:09:17.369Z,2.95
2023-08-03T16:11:54.610Z,3.20
2023-08-03T16:14:23.712Z,2.60
2023-08-03T16:16:52.460Z,3.53
2023-08-03T16:19:23.886Z,3.45
2023-08-03T16:21:57.368Z,3.67
2023-08-03T16:24:26.170Z,3.92
2023-08-03T16:26:55.241Z,3.78
2023-08-03T16:29:24.159Z,3.55
2023-08-03T16:31:54.070Z,3.97
2023-08-03T16:34:27.388Z,3.20
2023-08-03T16:36:59.547Z,3.40
2023-08-03T16:39:29.589Z,3.30
2023-08-03T16:41:59.062Z,3.38
2023-08-03T16:44:28.168Z,2.67
2023-08-03T16:46:57.473Z,3.08
2023-08-03T16:49:26.607Z,2.97
2023-08-03T16:51:55.481Z,3.03
2023-08-03T16:54:26.174Z,2.40
2023-08-03T16:56:55.466Z,3.00
2023-08-03T16:59:24.785Z,2.58
2023-08-03T17:01:54.018Z,2.75
2023-08-03T17:04:22.931Z,3.25
2023-08-03T17:06:52.582Z,2.63
2023-08-03T17:09:21.407Z,2.88
2023-08-03T17:11:52.650Z,3.10
2023-08-03T17:14:25.527Z,2.80
2023-08-03T17:16:55.143Z,3.17
2023-08-03T17:19:24.495Z,3.33
2023-08-03T17:21:53.487Z,3.20
2023-08-03T17:24:24.804Z,3.17
2023-08-03T17:26:55.675Z,3.35
2023-08-03T17:29:24.682Z,3.00
2023-08-03T17:31:53.542Z,3.33
2023-08-03T17:34:24.822Z,4.32
2023-08-03T17:36:54.859Z,3.47
2023-08-03T17:39:24.121Z,3.97
2023-08-03T17:41:54.677Z,3.45
2023-08-03T17:44:25.522Z,3.10
2023-08-03T17:46:55.537Z,3.58
2023-08-03T17:49:24.436Z,3.33
2023-08-03T17:51:53.302Z,3.00
2023-08-03T17:54:22.555Z,3.40
2023-08-03T17:56:52.564Z,3.33
2023-08-03T17:59:23.139Z,3.05
2023-08-03T18:01:52.448Z,3.33
2023-08-03T18:04:25.418Z,3.67
2023-08-03T18:06:54.281Z,4.15
2023-08-03T18:09:23.297Z,3.58
2023-08-03T18:11:52.059Z,2.90
2023-08-03T18:14:25.437Z,3.25
2023-08-03T18:16:54.488Z,3.08
2023-08-03T18:19:23.343Z,3.15
2023-08-03T18:21:52.012Z,3.15
2023-08-03T18:24:21.421Z,3.50
2023-08-03T18:26:50.410Z,3.25
2023-08-03T18:29:21.125Z,3.35
2023-08-03T18:31:51.535Z,3.75
2023-08-03T18:34:20.702Z,3.63
2023-08-03T18:36:50.213Z,3.55
2023-08-03T18:39:21.747Z,3.17
2023-08-03T18:46:21.122Z,3.20
2023-08-03T18:48:51.810Z,4.22
2023-08-03T18:51:23.299Z,3.40
2023-08-03T18:53:54.136Z,3.10
2023-08-03T18:56:25.934Z,3.60
2023-08-03T18:59:00.812Z,3.20
2023-08-03T19:01:31.847Z,3.97
2023-08-03T19:04:04.287Z,3.55
2023-08-03T19:06:35.038Z,4.13
2023-08-03T19:09:10.074Z,4.35
2023-08-03T19:11:41.833Z,4.32
2023-08-03T19:14:14.658Z,4.25
2023-08-03T19:16:43.727Z,4.82
2023-08-03T19:19:14.212Z,4.88
2023-08-03T19:21:45.604Z,5.18
2023-08-03T19:24:14.519Z,5.03
2023-08-03T19:26:43.342Z,5.05
2023-08-03T19:29:17.484Z,5.22
2023-08-03T19:34:19.445Z,5.05
2023-08-03T19:36:48.426Z,5.60
2023-08-03T19:39:19.666Z,5.20
2023-08-03T19:41:48.622Z,4.68
2023-08-03T19:44:17.479Z,4.97
2023-08-03T19:46:46.314Z,4.75
2023-08-03T19:56:52.967Z,5.38
2023-08-03T20:07:13.415Z,5.38
2023-08-03T20:09:42.920Z,5.65
2023-08-03T20:12:12.393Z,5.53
2023-08-03T20:14:41.109Z,5.03
2023-08-03T20:19:43.493Z,5.20
2023-08-03T20:22:14.350Z,5.80
2023-08-03T20:24:43.320Z,5.60
2023-08-03T21:41:00.648Z,5.35
2023-08-03T21:43:29.375Z,4.80
2023-08-03T21:45:58.094Z,4.57
2023-08-03T21:48:26.963Z,5.25
2023-08-03T21:50:56.204Z,5.22
2023-08-03T21:56:17.553Z,5.07
2023-08-03T21:58:50.042Z,5.70
2023-08-03T22:01:39.109Z,5.10
2023-08-03T22:04:21.712Z,5.30
2023-08-03T22:06:53.382Z,4.30
2023-08-03T22:09:22.354Z,5.47
2023-08-03T22:11:55.213Z,5.13
2023-08-03T22:14:24.557Z,5.72
2023-08-03T22:16:53.658Z,6.07
2023-08-03T22:19:22.467Z,4.97
2023-08-03T22:21:54.052Z,4.88
2023-08-03T22:24:22.917Z,5.78
2023-08-03T22:26:53.346Z,5.57
2023-08-03T22:29:21.952Z,5.30
2023-08-03T22:32:13.284Z,5.20
2023-08-03T22:34:42.117Z,5.30
2023-08-03T22:37:11.196Z,5.22
2023-08-03T22:39:55.178Z,4.93
2023-08-03T22:42:25.496Z,5.53
2023-08-03T22:44:54.530Z,4.55
2023-08-03T22:47:23.524Z,5.13
2023-08-03T22:52:35.006Z,4.90
2023-08-03T22:55:05.146Z,4.90
2023-08-03T22:57:35.586Z,5.07
2023-08-03T23:00:04.996Z,5.05
2023-08-03T23:02:56.556Z,4.55
2023-08-03T23:05:26.106Z,5.63
2023-08-03T23:07:54.852Z,4.60
2023-08-03T23:10:23.571Z,4.55
2023-08-03T23:15:41.318Z,5.10
2023-08-03T23:20:59.040Z,4.60
2023-08-03T23:23:31.829Z,4.13
2023-08-03T23:26:07.301Z,4.18
2023-08-03T23:28:54.885Z,5.07
2023-08-03T23:31:23.545Z,4.53
2023-08-03T23:33:52.289Z,4.72
2023-08-03T23:36:21.267Z,4.75
2023-08-03T23:39:03.327Z,4.47
2023-08-03T23:41:33.186Z,4.90
2023-08-03T23:44:03.327Z,4.65
2023-08-03T23:49:18.432Z,4.43
2023-08-03T23:54:44.202Z,5.05
2023-08-03T23:57:33.178Z,4.60
